Weston, Idaho
Current Conditions -  °F | °C
As of 4:51 PM on Saturday 20 Dec 2014 (Local Time) from KLGU Reporting Station
Overcast Overcast  
Wind Chill: 34°   Ceiling: 3500
Heat Index: 39°   Visibility: 10mi
Dew Point: 34°   Wind: 7mph
Humidity: 82%   Direction: 150°SSE
Pressure: 30.04"   Gusts: NA
Location:  42.04°N, 111.98°W
Report Text: KLGU 202351Z AUTO 15006KT 10SM OVC035 04/01 A3004 RMK AO2 SLP177 60005 T00390011 10044 20028 56003
Loading
Personal Weather Stations






























Interactive Weather Map New forecast layout! Learn more

10-Day Weather Forecast

Advertisements
Track Severe Weather on mobile